Finnhawk — OJNL — position and weather

sailwx.info

Track history (hours):
 
Tides and Currents Weather Stations Pressure Air Temp Water Temp Dewpoint Dewpoint Depression Visibility Wind Speed Wind Dir Waves Ship Positions

Finnhawk

Last reported at 2014-Aug-21 21:33 UTC. Time now 2014-Aug-21 22:02 UTC.
Position N 54°32' E 018°32'.

Length 163 m; draft 6.2 m.

Type: Ship. MMSI: 230007000.

Date/timePositionNaut miles runAvg speedWind from/ knotsBaromVisibWave heightAir tempDewpointWater temp
2014-Aug-21 21:33N 54°32' E 018°32'0 0.0
2014-Aug-21 20:33N 54°32' E 018°32'0 0.0
2014-Aug-21 19:33N 54°32' E 018°32'0 0.0
2014-Aug-21 18:33N 54°32' E 018°32'0 0.3
2014-Aug-21 17:33N 54°32' E 018°32'1110.6
2014-Aug-21 16:33N 54°34' E 018°50'1717.4
2014-Aug-21 15:33N 54°51' E 018°56'1919.0
2014-Aug-21 14:33N 55°09' E 018°44'12617.9
2014-Aug-21 07:31N 57°11' E 017°47'  
2014-Aug-15 01:33N 59°39' E 023°18'1615.2
2014-Aug-15 00:29N 59°42' E 023°49'7715.3
2014-Aug-14 19:27N 60°06' E 026°15'1415.2
2014-Aug-14 18:33N 60°17' E 026°31'1616.5
2014-Aug-14 17:33N 60°27' E 026°58'2 2.4
2014-Aug-14 16:31N 60°29' E 026°57'0 0.0
2014-Aug-14 15:31N 60°29' E 026°57'0 0.0
2014-Aug-14 14:31N 60°29' E 026°57'0 0.0
2014-Aug-14 13:31N 60°29' E 026°57'0 0.0
2014-Aug-14 12:31N 60°29' E 026°57'0 0.0
2014-Aug-14 11:31N 60°29' E 026°57'0 0.0
2014-Aug-14 10:31N 60°29' E 026°57'0 0.0
2014-Aug-14 09:31N 60°29' E 026°57'0 0.0
2014-Aug-14 08:31N 60°29' E 026°57'0 0.0
2014-Aug-14 07:31N 60°29' E 026°57'0 0.0
2014-Aug-14 06:28N 60°29' E 026°57'0 0.0
2014-Aug-14 05:31N 60°29' E 026°57'0 0.0
2014-Aug-14 04:31N 60°29' E 026°57'0 0.0
2014-Aug-14 03:31N 60°29' E 026°57'0 0.0
2014-Aug-14 02:34N 60°29' E 026°57'6 5.9
2014-Aug-14 01:33N 60°24' E 026°52'1717.4
2014-Aug-14 00:33N 60°13' E 026°24'1212.3
2014-Aug-13 23:33N 60°02' E 026°34'10713.1
2014-Aug-13 15:24N 59°54' E 030°07'3 3.2
2014-Aug-13 14:25N 59°53' E 030°13'0 0.0
2014-Aug-13 13:34N 59°53' E 030°13'0 0.0
2014-Aug-13 12:34N 59°53' E 030°13'0 0.0
2014-Aug-13 11:34N 59°53' E 030°13'0 0.0
2014-Aug-13 10:28N 59°53' E 030°13'0 0.0
2014-Aug-13 09:28N 59°53' E 030°13'0 0.0
2014-Aug-13 08:31N 59°53' E 030°13'0 0.0
2014-Aug-13 07:31N 59°53' E 030°13'0 0.0
2014-Aug-13 05:34N 59°53' E 030°13'0 0.4
2014-Aug-13 04:33N 59°53' E 030°12'10211.3
2014-Aug-12 19:33N 59°59' E 026°49'1515.4
2014-Aug-12 18:33N 59°57' E 026°18'1615.5
2014-Aug-12 17:32N 59°57' E 025°46'1914.3
2014-Aug-12 16:12N 60°03' E 025°11'912.2
2014-Aug-12 15:29N 60°12' E 025°13'  
Track history (hours):
 
Tides and Currents Weather Stations Pressure Air Temp Water Temp Dewpoint Dewpoint Depression Visibility Wind Speed Wind Dir Waves Ship Positions

Finnhawk

Last reported at 2014-Aug-21 21:33 UTC. Time now 2014-Aug-21 22:02 UTC.
Position N 54°32' E 018°32'.

Length 163 m; draft 6.2 m.

Type: Ship. MMSI: 230007000.

Date/timePositionNaut miles runAvg speedWind from/ knotsBaromVisibWave heightAir tempDewpointWater temp
2014-Aug-21 21:33N 54°32' E 018°32'0 0.0
2014-Aug-21 20:33N 54°32' E 018°32'0 0.0
2014-Aug-21 19:33N 54°32' E 018°32'0 0.0
2014-Aug-21 18:33N 54°32' E 018°32'0 0.3
2014-Aug-21 17:33N 54°32' E 018°32'1110.6
2014-Aug-21 16:33N 54°34' E 018°50'1717.4
2014-Aug-21 15:33N 54°51' E 018°56'1919.0
2014-Aug-21 14:33N 55°09' E 018°44'12617.9
2014-Aug-21 07:31N 57°11' E 017°47'  
2014-Aug-15 01:33N 59°39' E 023°18'1615.2
2014-Aug-15 00:29N 59°42' E 023°49'7715.3
2014-Aug-14 19:27N 60°06' E 026°15'1415.2
2014-Aug-14 18:33N 60°17' E 026°31'1616.5
2014-Aug-14 17:33N 60°27' E 026°58'2 2.4
2014-Aug-14 16:31N 60°29' E 026°57'0 0.0
2014-Aug-14 15:31N 60°29' E 026°57'0 0.0
2014-Aug-14 14:31N 60°29' E 026°57'0 0.0
2014-Aug-14 13:31N 60°29' E 026°57'0 0.0
2014-Aug-14 12:31N 60°29' E 026°57'0 0.0
2014-Aug-14 11:31N 60°29' E 026°57'0 0.0
2014-Aug-14 10:31N 60°29' E 026°57'0 0.0
2014-Aug-14 09:31N 60°29' E 026°57'0 0.0
2014-Aug-14 08:31N 60°29' E 026°57'0 0.0
2014-Aug-14 07:31N 60°29' E 026°57'0 0.0
2014-Aug-14 06:28N 60°29' E 026°57'0 0.0
2014-Aug-14 05:31N 60°29' E 026°57'0 0.0
2014-Aug-14 04:31N 60°29' E 026°57'0 0.0
2014-Aug-14 03:31N 60°29' E 026°57'0 0.0
2014-Aug-14 02:34N 60°29' E 026°57'6 5.9
2014-Aug-14 01:33N 60°24' E 026°52'1717.4
2014-Aug-14 00:33N 60°13' E 026°24'1212.3
2014-Aug-13 23:33N 60°02' E 026°34'10713.1
2014-Aug-13 15:24N 59°54' E 030°07'3 3.2
2014-Aug-13 14:25N 59°53' E 030°13'0 0.0
2014-Aug-13 13:34N 59°53' E 030°13'0 0.0
2014-Aug-13 12:34N 59°53' E 030°13'0 0.0
2014-Aug-13 11:34N 59°53' E 030°13'0 0.0
2014-Aug-13 10:28N 59°53' E 030°13'0 0.0
2014-Aug-13 09:28N 59°53' E 030°13'0 0.0
2014-Aug-13 08:31N 59°53' E 030°13'0 0.0
2014-Aug-13 07:31N 59°53' E 030°13'0 0.0
2014-Aug-13 05:34N 59°53' E 030°13'0 0.4
2014-Aug-13 04:33N 59°53' E 030°12'10211.3
2014-Aug-12 19:33N 59°59' E 026°49'1515.4
2014-Aug-12 18:33N 59°57' E 026°18'1615.5
2014-Aug-12 17:32N 59°57' E 025°46'1914.3
2014-Aug-12 16:12N 60°03' E 025°11'912.2
2014-Aug-12 15:29N 60°12' E 025°13'  

Dump ship's entire track history